sensor_id;sensor_type;location;lat;lon;timestamp;temperature;humidity
70947;DHT22;58605;48.700;8.760;2022-12-18T00:01:24;-11.50;92.00
70947;DHT22;58605;48.700;8.760;2022-12-18T00:03:50;-11.50;98.00
70947;DHT22;58605;48.700;8.760;2022-12-18T00:06:17;-11.50;99.90
70947;DHT22;58605;48.700;8.760;2022-12-18T00:08:45;-11.40;99.90
70947;DHT22;58605;48.700;8.760;2022-12-18T00:11:13;-11.50;95.70
70947;DHT22;58605;48.700;8.760;2022-12-18T00:13:39;-11.50;95.50
70947;DHT22;58605;48.700;8.760;2022-12-18T00:16:08;-11.40;98.80
70947;DHT22;58605;48.700;8.760;2022-12-18T00:18:34;-11.30;98.70
70947;DHT22;58605;48.700;8.760;2022-12-18T00:21:02;-11.40;92.90
70947;DHT22;58605;48.700;8.760;2022-12-18T00:23:28;-11.60;90.90
70947;DHT22;58605;48.700;8.760;2022-12-18T00:25:59;-11.60;92.00
70947;DHT22;58605;48.700;8.760;2022-12-18T00:28:25;-11.70;91.30
70947;DHT22;58605;48.700;8.760;2022-12-18T00:30:51;-11.80;91.00
70947;DHT22;58605;48.700;8.760;2022-12-18T00:33:24;-11.70;97.90
70947;DHT22;58605;48.700;8.760;2022-12-18T00:35:50;-11.60;99.90
70947;DHT22;58605;48.700;8.760;2022-12-18T00:38:16;-11.50;99.00
70947;DHT22;58605;48.700;8.760;2022-12-18T00:40:42;-11.60;95.40
70947;DHT22;58605;48.700;8.760;2022-12-18T00:43:09;-11.60;93.30
70947;DHT22;58605;48.700;8.760;2022-12-18T00:45:35;-11.80;90.90
70947;DHT22;58605;48.700;8.760;2022-12-18T00:48:01;-11.70;93.90
70947;DHT22;58605;48.700;8.760;2022-12-18T00:50:27;-11.60;99.90
70947;DHT22;58605;48.700;8.760;2022-12-18T00:52:53;-11.50;99.90
70947;DHT22;58605;48.700;8.760;2022-12-18T00:55:19;-11.50;99.90
70947;DHT22;58605;48.700;8.760;2022-12-18T00:57:45;-11.60;96.20
70947;DHT22;58605;48.700;8.760;2022-12-18T01:00:14;-11.70;95.10
70947;DHT22;58605;48.700;8.760;2022-12-18T01:02:41;-11.90;91.10
70947;DHT22;58605;48.700;8.760;2022-12-18T01:05:08;-11.90;92.80
70947;DHT22;58605;48.700;8.760;2022-12-18T01:07:34;-11.90;93.20
70947;DHT22;58605;48.700;8.760;2022-12-18T01:09:59;-11.90;92.10
70947;DHT22;58605;48.700;8.760;2022-12-18T01:12:25;-12.00;90.80
70947;DHT22;58605;48.700;8.760;2022-12-18T01:14:51;-12.20;89.10
70947;DHT22;58605;48.700;8.760;2022-12-18T01:17:19;-12.10;92.20
70947;DHT22;58605;48.700;8.760;2022-12-18T01:19:45;-12.20;90.60
70947;DHT22;58605;48.700;8.760;2022-12-18T01:22:11;-12.30;89.50
70947;DHT22;58605;48.700;8.760;2022-12-18T01:24:36;-12.20;91.50
70947;DHT22;58605;48.700;8.760;2022-12-18T01:27:02;-12.30;90.90
70947;DHT22;58605;48.700;8.760;2022-12-18T01:29:28;-12.20;92.10
70947;DHT22;58605;48.700;8.760;2022-12-18T01:31:55;-12.20;95.70
70947;DHT22;58605;48.700;8.760;2022-12-18T01:34:22;-11.90;99.90
70947;DHT22;58605;48.700;8.760;2022-12-18T01:36:48;-11.70;99.90
70947;DHT22;58605;48.700;8.760;2022-12-18T01:39:14;-11.50;99.90
70947;DHT22;58605;48.700;8.760;2022-12-18T01:41:41;-11.40;99.90
70947;DHT22;58605;48.700;8.760;2022-12-18T01:45:00;-11.40;99.90
70947;DHT22;58605;48.700;8.760;2022-12-18T01:47:30;-11.40;99.90
70947;DHT22;58605;48.700;8.760;2022-12-18T01:50:00;-11.30;99.90
70947;DHT22;58605;48.700;8.760;2022-12-18T01:52:30;-11.20;99.90
70947;DHT22;58605;48.700;8.760;2022-12-18T01:54:57;-11.20;99.70
70947;DHT22;58605;48.700;8.760;2022-12-18T01:57:25;-11.30;95.90
70947;DHT22;58605;48.700;8.760;2022-12-18T01:59:53;-11.40;96.00
70947;DHT22;58605;48.700;8.760;2022-12-18T02:02:35;-11.40;97.70
70947;DHT22;58605;48.700;8.760;2022-12-18T02:05:04;-11.30;99.60
70947;DHT22;58605;48.700;8.760;2022-12-18T02:07:37;-11.30;99.90
70947;DHT22;58605;48.700;8.760;2022-12-18T02:10:15;-11.20;99.90
70947;DHT22;58605;48.700;8.760;2022-12-18T02:12:45;-11.30;99.20
70947;DHT22;58605;48.700;8.760;2022-12-18T02:15:19;-11.40;97.10
70947;DHT22;58605;48.700;8.760;2022-12-18T02:17:54;-11.40;95.50
70947;DHT22;58605;48.700;8.760;2022-12-18T02:20:27;-11.50;94.70
70947;DHT22;58605;48.700;8.760;2022-12-18T02:23:04;-11.60;94.00
70947;DHT22;58605;48.700;8.760;2022-12-18T02:25:41;-11.60;99.80
70947;DHT22;58605;48.700;8.760;2022-12-18T02:28:15;-11.50;98.90
70947;DHT22;58605;48.700;8.760;2022-12-18T02:30:42;-11.60;97.70
70947;DHT22;58605;48.700;8.760;2022-12-18T02:33:11;-11.50;98.90
70947;DHT22;58605;48.700;8.760;2022-12-18T02:35:40;-11.50;99.90
70947;DHT22;58605;48.700;8.760;2022-12-18T02:38:06;-11.30;99.90
70947;DHT22;58605;48.700;8.760;2022-12-18T02:40:33;-11.30;98.50
70947;DHT22;58605;48.700;8.760;2022-12-18T02:43:03;-11.40;95.80
70947;DHT22;58605;48.700;8.760;2022-12-18T02:45:34;-11.40;94.90
70947;DHT22;58605;48.700;8.760;2022-12-18T02:48:00;-11.70;91.30
70947;DHT22;58605;48.700;8.760;2022-12-18T02:50:30;-11.60;97.10
70947;DHT22;58605;48.700;8.760;2022-12-18T02:53:06;-11.50;97.90
70947;DHT22;58605;48.700;8.760;2022-12-18T02:55:44;-11.50;98.60
70947;DHT22;58605;48.700;8.760;2022-12-18T02:58:16;-11.50;98.60
70947;DHT22;58605;48.700;8.760;2022-12-18T03:00:50;-11.50;99.50
70947;DHT22;58605;48.700;8.760;2022-12-18T03:03:21;-11.40;99.90
70947;DHT22;58605;48.700;8.760;2022-12-18T03:05:55;-11.40;98.00
70947;DHT22;58605;48.700;8.760;2022-12-18T03:08:25;-11.50;95.70
70947;DHT22;58605;48.700;8.760;2022-12-18T03:10:57;-11.40;98.50
70947;DHT22;58605;48.700;8.760;2022-12-18T03:13:28;-11.40;96.80
70947;DHT22;58605;48.700;8.760;2022-12-18T03:15:57;-11.50;94.40
70947;DHT22;58605;48.700;8.760;2022-12-18T03:18:27;-11.60;93.10
70947;DHT22;58605;48.700;8.760;2022-12-18T03:20:58;-11.40;98.20
70947;DHT22;58605;48.700;8.760;2022-12-18T03:23:28;-11.60;94.50
70947;DHT22;58605;48.700;8.760;2022-12-18T03:25:58;-11.50;95.60
70947;DHT22;58605;48.700;8.760;2022-12-18T03:28:27;-11.40;99.00
70947;DHT22;58605;48.700;8.760;2022-12-18T03:30:59;-11.30;99.90
70947;DHT22;58605;48.700;8.760;2022-12-18T03:33:28;-11.10;99.90
70947;DHT22;58605;48.700;8.760;2022-12-18T03:35:55;-11.00;99.90
70947;DHT22;58605;48.700;8.760;2022-12-18T03:38:22;-11.00;99.90
70947;DHT22;58605;48.700;8.760;2022-12-18T03:40:56;-11.20;94.30
70947;DHT22;58605;48.700;8.760;2022-12-18T03:43:34;-11.30;93.80
70947;DHT22;58605;48.700;8.760;2022-12-18T03:46:04;-11.30;98.30
70947;DHT22;58605;48.700;8.760;2022-12-18T03:48:36;-11.20;99.90
70947;DHT22;58605;48.700;8.760;2022-12-18T03:51:08;-11.20;97.80
70947;DHT22;58605;48.700;8.760;2022-12-18T03:53:40;-11.50;92.60
70947;DHT22;58605;48.700;8.760;2022-12-18T03:56:10;-11.60;94.90
70947;DHT22;58605;48.700;8.760;2022-12-18T03:58:39;-11.70;91.80
70947;DHT22;58605;48.700;8.760;2022-12-18T04:01:08;-11.80;93.70
70947;DHT22;58605;48.700;8.760;2022-12-18T04:03:36;-11.60;96.70
70947;DHT22;58605;48.700;8.760;2022-12-18T04:06:03;-11.50;98.80
70947;DHT22;58605;48.700;8.760;2022-12-18T04:08:31;-11.40;99.90
70947;DHT22;58605;48.700;8.760;2022-12-18T04:10:57;-11.50;96.90
70947;DHT22;58605;48.700;8.760;2022-12-18T04:13:24;-11.60;93.80
70947;DHT22;58605;48.700;8.760;2022-12-18T04:15:50;-11.30;97.70
70947;DHT22;58605;48.700;8.760;2022-12-18T04:18:19;-11.00;99.40
70947;DHT22;58605;48.700;8.760;2022-12-18T04:20:45;-10.90;99.90
70947;DHT22;58605;48.700;8.760;2022-12-18T04:23:11;-10.90;99.50
70947;DHT22;58605;48.700;8.760;2022-12-18T04:25:37;-11.10;96.40
70947;DHT22;58605;48.700;8.760;2022-12-18T04:28:03;-11.30;95.70
70947;DHT22;58605;48.700;8.760;2022-12-18T04:30:29;-11.50;98.10
70947;DHT22;58605;48.700;8.760;2022-12-18T04:32:56;-11.60;99.00
70947;DHT22;58605;48.700;8.760;2022-12-18T04:35:23;-11.50;99.10
70947;DHT22;58605;48.700;8.760;2022-12-18T04:37:49;-11.50;97.60
70947;DHT22;58605;48.700;8.760;2022-12-18T04:40:15;-11.50;99.00
70947;DHT22;58605;48.700;8.760;2022-12-18T04:42:41;-11.40;99.90
70947;DHT22;58605;48.700;8.760;2022-12-18T04:45:08;-11.30;99.90
70947;DHT22;58605;48.700;8.760;2022-12-18T04:47:34;-11.30;99.90
70947;DHT22;58605;48.700;8.760;2022-12-18T04:50:00;-11.30;98.50
70947;DHT22;58605;48.700;8.760;2022-12-18T04:52:28;-11.20;99.70
70947;DHT22;58605;48.700;8.760;2022-12-18T04:54:54;-11.20;99.90
70947;DHT22;58605;48.700;8.760;2022-12-18T04:57:20;-10.90;99.90
70947;DHT22;58605;48.700;8.760;2022-12-18T04:59:46;-10.60;99.90
70947;DHT22;58605;48.700;8.760;2022-12-18T05:02:12;-10.20;99.90
70947;DHT22;58605;48.700;8.760;2022-12-18T05:04:39;-9.80;99.90
70947;DHT22;58605;48.700;8.760;2022-12-18T05:07:05;-9.40;99.90
70947;DHT22;58605;48.700;8.760;2022-12-18T05:09:33;-9.10;99.90
70947;DHT22;58605;48.700;8.760;2022-12-18T05:11:59;-8.90;99.90
70947;DHT22;58605;48.700;8.760;2022-12-18T05:14:25;-8.80;99.90
70947;DHT22;58605;48.700;8.760;2022-12-18T05:16:53;-8.70;99.90
70947;DHT22;58605;48.700;8.760;2022-12-18T05:19:19;-8.40;99.90
70947;DHT22;58605;48.700;8.760;2022-12-18T05:21:45;-8.30;99.90
70947;DHT22;58605;48.700;8.760;2022-12-18T05:24:11;-8.30;99.90
70947;DHT22;58605;48.700;8.760;2022-12-18T05:26:39;-8.10;99.90
70947;DHT22;58605;48.700;8.760;2022-12-18T05:29:05;-8.00;99.90
70947;DHT22;58605;48.700;8.760;2022-12-18T05:31:31;-8.00;99.90
70947;DHT22;58605;48.700;8.760;2022-12-18T05:33:58;-7.90;99.90
70947;DHT22;58605;48.700;8.760;2022-12-18T05:36:24;-7.90;99.90
70947;DHT22;58605;48.700;8.760;2022-12-18T05:38:50;-7.90;99.90
70947;DHT22;58605;48.700;8.760;2022-12-18T05:41:16;-7.80;99.90
70947;DHT22;58605;48.700;8.760;2022-12-18T05:43:44;-7.70;99.90
70947;DHT22;58605;48.700;8.760;2022-12-18T05:46:12;-7.70;99.90
70947;DHT22;58605;48.700;8.760;2022-12-18T05:48:39;-7.80;99.90
70947;DHT22;58605;48.700;8.760;2022-12-18T05:51:07;-7.70;99.90
70947;DHT22;58605;48.700;8.760;2022-12-18T05:53:34;-7.60;99.90
70947;DHT22;58605;48.700;8.760;2022-12-18T05:56:01;-7.60;99.90
70947;DHT22;58605;48.700;8.760;2022-12-18T05:58:28;-7.40;99.90
70947;DHT22;58605;48.700;8.760;2022-12-18T06:00:56;-7.70;99.90
70947;DHT22;58605;48.700;8.760;2022-12-18T06:03:22;-8.00;99.90
70947;DHT22;58605;48.700;8.760;2022-12-18T06:05:49;-8.00;99.90
70947;DHT22;58605;48.700;8.760;2022-12-18T06:08:15;-7.90;99.90
70947;DHT22;58605;48.700;8.760;2022-12-18T06:10:41;-7.60;99.90
70947;DHT22;58605;48.700;8.760;2022-12-18T06:13:07;-7.40;99.90
70947;DHT22;58605;48.700;8.760;2022-12-18T06:15:36;-7.30;99.90
70947;DHT22;58605;48.700;8.760;2022-12-18T06:18:04;-7.30;99.90
70947;DHT22;58605;48.700;8.760;2022-12-18T06:20:30;-7.20;99.90
70947;DHT22;58605;48.700;8.760;2022-12-18T06:22:56;-7.10;99.90
70947;DHT22;58605;48.700;8.760;2022-12-18T06:25:22;-7.00;99.90
70947;DHT22;58605;48.700;8.760;2022-12-18T06:27:48;-6.90;99.90
70947;DHT22;58605;48.700;8.760;2022-12-18T06:30:14;-6.80;99.90
70947;DHT22;58605;48.700;8.760;2022-12-18T06:32:40;-6.70;99.90
70947;DHT22;58605;48.700;8.760;2022-12-18T06:35:08;-6.60;99.90
70947;DHT22;58605;48.700;8.760;2022-12-18T06:37:35;-6.50;99.90
70947;DHT22;58605;48.700;8.760;2022-12-18T06:40:01;-6.50;99.90
70947;DHT22;58605;48.700;8.760;2022-12-18T06:42:28;-6.40;99.90
70947;DHT22;58605;48.700;8.760;2022-12-18T06:44:55;-6.40;99.80
70947;DHT22;58605;48.700;8.760;2022-12-18T06:47:21;-6.40;99.90
70947;DHT22;58605;48.700;8.760;2022-12-18T06:49:47;-6.40;99.30
70947;DHT22;58605;48.700;8.760;2022-12-18T06:52:14;-6.40;99.80
70947;DHT22;58605;48.700;8.760;2022-12-18T06:54:40;-6.30;99.90
70947;DHT22;58605;48.700;8.760;2022-12-18T06:57:06;-6.20;97.90
70947;DHT22;58605;48.700;8.760;2022-12-18T06:59:39;-6.30;96.40
70947;DHT22;58605;48.700;8.760;2022-12-18T07:02:06;-6.30;96.50
70947;DHT22;58605;48.700;8.760;2022-12-18T07:04:32;-6.30;95.70
70947;DHT22;58605;48.700;8.760;2022-12-18T07:06:58;-6.30;95.80
70947;DHT22;58605;48.700;8.760;2022-12-18T07:09:25;-6.20;95.60
70947;DHT22;58605;48.700;8.760;2022-12-18T07:11:51;-6.10;93.80
70947;DHT22;58605;48.700;8.760;2022-12-18T07:14:17;-6.10;93.80
70947;DHT22;58605;48.700;8.760;2022-12-18T07:16:44;-6.10;94.00
70947;DHT22;58605;48.700;8.760;2022-12-18T07:19:10;-5.90;94.50
70947;DHT22;58605;48.700;8.760;2022-12-18T07:21:36;-5.80;93.30
70947;DHT22;58605;48.700;8.760;2022-12-18T07:24:02;-5.80;93.10
70947;DHT22;58605;48.700;8.760;2022-12-18T07:26:30;-5.80;93.40
70947;DHT22;58605;48.700;8.760;2022-12-18T07:28:57;-5.70;92.50
70947;DHT22;58605;48.700;8.760;2022-12-18T07:31:30;-5.80;92.80
70947;DHT22;58605;48.700;8.760;2022-12-18T07:33:56;-5.70;92.80
70947;DHT22;58605;48.700;8.760;2022-12-18T07:36:22;-5.70;92.50
70947;DHT22;58605;48.700;8.760;2022-12-18T07:38:48;-5.70;92.10
70947;DHT22;58605;48.700;8.760;2022-12-18T07:41:14;-5.80;92.90
70947;DHT22;58605;48.700;8.760;2022-12-18T07:43:42;-5.80;93.20
70947;DHT22;58605;48.700;8.760;2022-12-18T07:46:09;-5.80;93.20
70947;DHT22;58605;48.700;8.760;2022-12-18T07:48:36;-6.00;90.60
70947;DHT22;58605;48.700;8.760;2022-12-18T07:51:04;-6.00;93.20
70947;DHT22;58605;48.700;8.760;2022-12-18T07:53:31;-6.00;94.90
70947;DHT22;58605;48.700;8.760;2022-12-18T07:55:57;-6.00;96.90
70947;DHT22;58605;48.700;8.760;2022-12-18T07:58:24;-6.00;98.50
70947;DHT22;58605;48.700;8.760;2022-12-18T08:00:52;-6.00;97.60
70947;DHT22;58605;48.700;8.760;2022-12-18T08:03:18;-5.90;98.80
70947;DHT22;58605;48.700;8.760;2022-12-18T08:05:44;-6.00;98.10
70947;DHT22;58605;48.700;8.760;2022-12-18T08:08:10;-6.00;98.80
70947;DHT22;58605;48.700;8.760;2022-12-18T08:10:37;-6.00;99.10
70947;DHT22;58605;48.700;8.760;2022-12-18T08:13:04;-5.90;98.70
70947;DHT22;58605;48.700;8.760;2022-12-18T08:15:30;-5.90;99.10
70947;DHT22;58605;48.700;8.760;2022-12-18T08:17:58;-5.80;98.80
70947;DHT22;58605;48.700;8.760;2022-12-18T08:20:24;-5.80;99.80
70947;DHT22;58605;48.700;8.760;2022-12-18T08:22:50;-5.80;98.00
70947;DHT22;58605;48.700;8.760;2022-12-18T08:25:16;-5.80;98.70
70947;DHT22;58605;48.700;8.760;2022-12-18T08:27:42;-5.80;99.90
70947;DHT22;58605;48.700;8.760;2022-12-18T08:30:10;-5.80;99.90
70947;DHT22;58605;48.700;8.760;2022-12-18T08:32:36;-5.80;99.60
70947;DHT22;58605;48.700;8.760;2022-12-18T08:35:04;-5.70;99.40
70947;DHT22;58605;48.700;8.760;2022-12-18T08:37:31;-5.60;98.20
70947;DHT22;58605;48.700;8.760;2022-12-18T08:39:57;-5.60;98.40
70947;DHT22;58605;48.700;8.760;2022-12-18T08:42:23;-5.60;99.10
70947;DHT22;58605;48.700;8.760;2022-12-18T08:45:08;-5.70;99.50
70947;DHT22;58605;48.700;8.760;2022-12-18T08:47:34;-5.70;99.90
70947;DHT22;58605;48.700;8.760;2022-12-18T08:50:02;-5.50;99.90
70947;DHT22;58605;48.700;8.760;2022-12-18T08:52:30;-5.60;99.90
70947;DHT22;58605;48.700;8.760;2022-12-18T08:54:56;-5.60;99.90
70947;DHT22;58605;48.700;8.760;2022-12-18T08:57:22;-5.60;99.90
70947;DHT22;58605;48.700;8.760;2022-12-18T08:59:49;-5.60;99.90
70947;DHT22;58605;48.700;8.760;2022-12-18T09:02:15;-5.50;99.90
70947;DHT22;58605;48.700;8.760;2022-12-18T09:04:41;-5.50;99.90
70947;DHT22;58605;48.700;8.760;2022-12-18T09:07:08;-5.50;99.60
70947;DHT22;58605;48.700;8.760;2022-12-18T09:09:35;-5.50;99.90
70947;DHT22;58605;48.700;8.760;2022-12-18T09:12:01;-5.40;99.90
70947;DHT22;58605;48.700;8.760;2022-12-18T09:14:27;-5.30;99.90
70947;DHT22;58605;48.700;8.760;2022-12-18T09:16:53;-5.30;99.60
70947;DHT22;58605;48.700;8.760;2022-12-18T09:19:19;-5.40;98.90
70947;DHT22;58605;48.700;8.760;2022-12-18T09:21:45;-5.40;99.00
70947;DHT22;58605;48.700;8.760;2022-12-18T09:24:14;-5.40;98.70
70947;DHT22;58605;48.700;8.760;2022-12-18T09:26:40;-5.50;99.90
70947;DHT22;58605;48.700;8.760;2022-12-18T09:29:07;-5.60;99.90
70947;DHT22;58605;48.700;8.760;2022-12-18T09:31:33;-5.60;99.90
70947;DHT22;58605;48.700;8.760;2022-12-18T09:33:59;-5.60;99.90
70947;DHT22;58605;48.700;8.760;2022-12-18T09:36:25;-5.40;99.90
70947;DHT22;58605;48.700;8.760;2022-12-18T09:38:51;-5.40;99.90
70947;DHT22;58605;48.700;8.760;2022-12-18T09:41:39;-5.50;99.90
70947;DHT22;58605;48.700;8.760;2022-12-18T09:44:16;-5.50;99.90
70947;DHT22;58605;48.700;8.760;2022-12-18T09:46:47;-5.60;99.90
70947;DHT22;58605;48.700;8.760;2022-12-18T09:49:18;-5.70;99.90
70947;DHT22;58605;48.700;8.760;2022-12-18T09:51:48;-5.60;99.90
70947;DHT22;58605;48.700;8.760;2022-12-18T09:54:20;-5.60;99.90
70947;DHT22;58605;48.700;8.760;2022-12-18T09:56:48;-5.60;99.90
70947;DHT22;58605;48.700;8.760;2022-12-18T09:59:21;-5.50;99.90
70947;DHT22;58605;48.700;8.760;2022-12-18T10:01:48;-5.50;99.90
70947;DHT22;58605;48.700;8.760;2022-12-18T10:04:14;-5.60;99.90
70947;DHT22;58605;48.700;8.760;2022-12-18T10:06:46;-5.60;99.90
70947;DHT22;58605;48.700;8.760;2022-12-18T10:09:22;-5.60;99.90
70947;DHT22;58605;48.700;8.760;2022-12-18T10:11:55;-5.50;99.90
70947;DHT22;58605;48.700;8.760;2022-12-18T10:14:30;-5.50;99.90
70947;DHT22;58605;48.700;8.760;2022-12-18T10:17:02;-5.50;99.90
70947;DHT22;58605;48.700;8.760;2022-12-18T10:19:39;-5.50;99.90
70947;DHT22;58605;48.700;8.760;2022-12-18T10:22:15;-5.50;99.90
70947;DHT22;58605;48.700;8.760;2022-12-18T10:24:49;-5.50;99.90
70947;DHT22;58605;48.700;8.760;2022-12-18T10:27:24;-5.60;99.90
70947;DHT22;58605;48.700;8.760;2022-12-18T10:29:51;-5.60;99.90
70947;DHT22;58605;48.700;8.760;2022-12-18T10:32:18;-5.60;99.90
70947;DHT22;58605;48.700;8.760;2022-12-18T10:34:46;-5.50;99.90
70947;DHT22;58605;48.700;8.760;2022-12-18T10:37:16;-5.50;99.90
70947;DHT22;58605;48.700;8.760;2022-12-18T10:39:43;-5.40;99.90
70947;DHT22;58605;48.700;8.760;2022-12-18T10:42:11;-5.40;99.90
70947;DHT22;58605;48.700;8.760;2022-12-18T10:44:41;-5.40;99.90
70947;DHT22;58605;48.700;8.760;2022-12-18T10:47:14;-5.40;99.90
70947;DHT22;58605;48.700;8.760;2022-12-18T10:49:46;-5.40;99.90
70947;DHT22;58605;48.700;8.760;2022-12-18T10:52:15;-5.30;99.90
70947;DHT22;58605;48.700;8.760;2022-12-18T10:54:48;-5.30;99.90
70947;DHT22;58605;48.700;8.760;2022-12-18T10:57:16;-5.30;99.90
70947;DHT22;58605;48.700;8.760;2022-12-18T10:59:51;-5.30;99.90
70947;DHT22;58605;48.700;8.760;2022-12-18T11:02:26;-5.30;99.90
70947;DHT22;58605;48.700;8.760;2022-12-18T11:04:54;-5.30;99.90
70947;DHT22;58605;48.700;8.760;2022-12-18T11:07:20;-5.30;99.90
70947;DHT22;58605;48.700;8.760;2022-12-18T11:09:59;-5.30;99.90
70947;DHT22;58605;48.700;8.760;2022-12-18T11:12:28;-5.30;99.90
70947;DHT22;58605;48.700;8.760;2022-12-18T11:14:56;-5.30;99.90
70947;DHT22;58605;48.700;8.760;2022-12-18T11:17:29;-5.40;99.90
70947;DHT22;58605;48.700;8.760;2022-12-18T11:19:57;-5.30;99.90
70947;DHT22;58605;48.700;8.760;2022-12-18T11:22:25;-5.30;99.90
70947;DHT22;58605;48.700;8.760;2022-12-18T11:24:56;-5.30;99.90
70947;DHT22;58605;48.700;8.760;2022-12-18T11:27:23;-5.30;99.90
70947;DHT22;58605;48.700;8.760;2022-12-18T11:29:50;-5.30;99.90
70947;DHT22;58605;48.700;8.760;2022-12-18T11:32:29;-5.30;99.90
70947;DHT22;58605;48.700;8.760;2022-12-18T11:35:03;-5.20;99.90
70947;DHT22;58605;48.700;8.760;2022-12-18T11:37:31;-5.20;99.90
70947;DHT22;58605;48.700;8.760;2022-12-18T11:40:01;-5.20;99.90
70947;DHT22;58605;48.700;8.760;2022-12-18T11:42:35;-5.20;99.90
70947;DHT22;58605;48.700;8.760;2022-12-18T11:45:26;-5.20;99.90
70947;DHT22;58605;48.700;8.760;2022-12-18T11:47:57;-5.10;99.90
70947;DHT22;58605;48.700;8.760;2022-12-18T11:50:29;-5.20;99.90
70947;DHT22;58605;48.700;8.760;2022-12-18T11:52:57;-5.20;99.90
70947;DHT22;58605;48.700;8.760;2022-12-18T11:55:30;-5.10;99.90
70947;DHT22;58605;48.700;8.760;2022-12-18T11:58:03;-5.10;99.90
70947;DHT22;58605;48.700;8.760;2022-12-18T12:00:37;-5.10;99.90
70947;DHT22;58605;48.700;8.760;2022-12-18T12:03:20;-5.10;99.90
70947;DHT22;58605;48.700;8.760;2022-12-18T12:05:58;-5.10;99.90
70947;DHT22;58605;48.700;8.760;2022-12-18T12:08:33;-5.10;99.90
70947;DHT22;58605;48.700;8.760;2022-12-18T12:11:07;-5.10;99.90
70947;DHT22;58605;48.700;8.760;2022-12-18T12:13:51;-5.10;99.90
70947;DHT22;58605;48.700;8.760;2022-12-18T12:16:24;-5.00;99.90
70947;DHT22;58605;48.700;8.760;2022-12-18T12:19:03;-5.00;99.90
70947;DHT22;58605;48.700;8.760;2022-12-18T12:21:36;-4.90;99.90
70947;DHT22;58605;48.700;8.760;2022-12-18T12:24:16;-4.90;99.90
70947;DHT22;58605;48.700;8.760;2022-12-18T12:26:51;-4.90;99.90
70947;DHT22;58605;48.700;8.760;2022-12-18T12:29:29;-4.90;99.90
70947;DHT22;58605;48.700;8.760;2022-12-18T12:32:07;-4.90;99.90
70947;DHT22;58605;48.700;8.760;2022-12-18T12:34:44;-4.90;99.90
70947;DHT22;58605;48.700;8.760;2022-12-18T12:37:24;-5.00;99.90
70947;DHT22;58605;48.700;8.760;2022-12-18T12:39:52;-5.00;99.90
70947;DHT22;58605;48.700;8.760;2022-12-18T12:42:26;-5.00;99.90
70947;DHT22;58605;48.700;8.760;2022-12-18T12:45:18;-5.00;99.90
70947;DHT22;58605;48.700;8.760;2022-12-18T12:47:46;-4.90;99.90
70947;DHT22;58605;48.700;8.760;2022-12-18T12:50:17;-4.90;99.90
70947;DHT22;58605;48.700;8.760;2022-12-18T12:52:47;-4.90;99.90
70947;DHT22;58605;48.700;8.760;2022-12-18T12:55:19;-4.90;99.90
70947;DHT22;58605;48.700;8.760;2022-12-18T12:57:51;-4.90;99.90
70947;DHT22;58605;48.700;8.760;2022-12-18T13:00:20;-4.80;99.90
70947;DHT22;58605;48.700;8.760;2022-12-18T13:02:50;-4.90;99.90
70947;DHT22;58605;48.700;8.760;2022-12-18T13:05:24;-4.90;99.90
70947;DHT22;58605;48.700;8.760;2022-12-18T13:07:54;-4.90;99.90
70947;DHT22;58605;48.700;8.760;2022-12-18T13:10:30;-4.90;99.90
70947;DHT22;58605;48.700;8.760;2022-12-18T13:12:58;-5.00;99.90
70947;DHT22;58605;48.700;8.760;2022-12-18T13:15:29;-5.00;99.90
70947;DHT22;58605;48.700;8.760;2022-12-18T13:18:20;-4.90;99.90
70947;DHT22;58605;48.700;8.760;2022-12-18T13:20:50;-4.90;99.90
70947;DHT22;58605;48.700;8.760;2022-12-18T13:23:35;-4.90;99.90
70947;DHT22;58605;48.700;8.760;2022-12-18T13:26:30;-4.90;99.90
70947;DHT22;58605;48.700;8.760;2022-12-18T13:28:57;-4.90;99.90
70947;DHT22;58605;48.700;8.760;2022-12-18T13:34:32;-4.80;99.90
70947;DHT22;58605;48.700;8.760;2022-12-18T13:39:59;-4.90;99.90
70947;DHT22;58605;48.700;8.760;2022-12-18T13:42:38;-4.90;99.90
70947;DHT22;58605;48.700;8.760;2022-12-18T13:45:42;-4.90;99.90
70947;DHT22;58605;48.700;8.760;2022-12-18T13:48:21;-4.90;99.90
70947;DHT22;58605;48.700;8.760;2022-12-18T13:50:53;-4.90;99.90
70947;DHT22;58605;48.700;8.760;2022-12-18T13:53:23;-4.90;99.90
70947;DHT22;58605;48.700;8.760;2022-12-18T13:55:52;-5.00;99.90
70947;DHT22;58605;48.700;8.760;2022-12-18T13:58:18;-4.90;99.90
70947;DHT22;58605;48.700;8.760;2022-12-18T14:00:44;-4.90;99.90
70947;DHT22;58605;48.700;8.760;2022-12-18T14:03:21;-4.90;99.90
70947;DHT22;58605;48.700;8.760;2022-12-18T14:05:53;-4.90;99.90
70947;DHT22;58605;48.700;8.760;2022-12-18T14:08:20;-4.90;99.90
70947;DHT22;58605;48.700;8.760;2022-12-18T14:10:48;-4.90;99.90
70947;DHT22;58605;48.700;8.760;2022-12-18T14:13:21;-4.90;99.90
70947;DHT22;58605;48.700;8.760;2022-12-18T14:15:49;-4.90;99.90
70947;DHT22;58605;48.700;8.760;2022-12-18T14:18:20;-4.90;99.90
70947;DHT22;58605;48.700;8.760;2022-12-18T14:20:48;-4.80;99.90
70947;DHT22;58605;48.700;8.760;2022-12-18T14:23:29;-4.80;99.90
70947;DHT22;58605;48.700;8.760;2022-12-18T14:25:55;-4.80;99.90
70947;DHT22;58605;48.700;8.760;2022-12-18T14:28:23;-4.80;99.90
70947;DHT22;58605;48.700;8.760;2022-12-18T14:30:50;-4.80;99.90
70947;DHT22;58605;48.700;8.760;2022-12-18T14:33:18;-4.70;99.90
70947;DHT22;58605;48.700;8.760;2022-12-18T14:35:54;-4.70;99.90
70947;DHT22;58605;48.700;8.760;2022-12-18T14:38:23;-4.70;99.90
70947;DHT22;58605;48.700;8.760;2022-12-18T14:40:53;-4.70;99.90
70947;DHT22;58605;48.700;8.760;2022-12-18T14:43:20;-4.70;99.90
70947;DHT22;58605;48.700;8.760;2022-12-18T14:45:48;-4.70;99.90
70947;DHT22;58605;48.700;8.760;2022-12-18T14:48:17;-4.70;99.90
70947;DHT22;58605;48.700;8.760;2022-12-18T14:50:44;-4.70;99.90
70947;DHT22;58605;48.700;8.760;2022-12-18T14:53:20;-4.60;99.90
70947;DHT22;58605;48.700;8.760;2022-12-18T14:55:47;-4.60;99.90
70947;DHT22;58605;48.700;8.760;2022-12-18T14:58:14;-4.60;99.90
70947;DHT22;58605;48.700;8.760;2022-12-18T15:00:41;-4.60;99.90
70947;DHT22;58605;48.700;8.760;2022-12-18T15:03:09;-4.70;99.90
70947;DHT22;58605;48.700;8.760;2022-12-18T15:05:36;-4.70;99.90
70947;DHT22;58605;48.700;8.760;2022-12-18T15:08:02;-4.60;99.90
70947;DHT22;58605;48.700;8.760;2022-12-18T15:10:29;-4.60;99.90
70947;DHT22;58605;48.700;8.760;2022-12-18T15:13:16;-4.60;99.90
70947;DHT22;58605;48.700;8.760;2022-12-18T15:15:48;-4.60;99.90
70947;DHT22;58605;48.700;8.760;2022-12-18T15:18:17;-4.60;99.90
70947;DHT22;58605;48.700;8.760;2022-12-18T15:20:45;-4.50;99.90
70947;DHT22;58605;48.700;8.760;2022-12-18T15:23:16;-4.50;99.90
70947;DHT22;58605;48.700;8.760;2022-12-18T15:25:43;-4.50;99.90
70947;DHT22;58605;48.700;8.760;2022-12-18T15:28:19;-4.50;99.90
70947;DHT22;58605;48.700;8.760;2022-12-18T15:31:17;-4.50;99.90
70947;DHT22;58605;48.700;8.760;2022-12-18T15:34:10;-4.50;99.90
70947;DHT22;58605;48.700;8.760;2022-12-18T15:36:38;-4.50;99.90
70947;DHT22;58605;48.700;8.760;2022-12-18T15:39:04;-4.40;99.90
70947;DHT22;58605;48.700;8.760;2022-12-18T15:41:32;-4.50;99.90
70947;DHT22;58605;48.700;8.760;2022-12-18T15:43:59;-4.50;99.90
70947;DHT22;58605;48.700;8.760;2022-12-18T15:46:26;-4.40;99.90